sensor_id;sensor_type;location;lat;lon;timestamp;P1;durP1;ratioP1;P2;durP2;ratioP2
19798;SDS011;10059;59.850;10.454;2023-01-10T00:00:42;3.07;;;1.97;;
19798;SDS011;10059;59.850;10.454;2023-01-10T00:03:09;2.37;;;1.60;;
19798;SDS011;10059;59.850;10.454;2023-01-10T00:05:37;3.87;;;2.00;;
19798;SDS011;10059;59.850;10.454;2023-01-10T00:08:05;2.60;;;1.80;;
19798;SDS011;10059;59.850;10.454;2023-01-10T00:10:34;2.87;;;2.00;;
19798;SDS011;10059;59.850;10.454;2023-01-10T00:13:00;2.73;;;1.93;;
19798;SDS011;10059;59.850;10.454;2023-01-10T00:15:45;2.70;;;1.70;;
19798;SDS011;10059;59.850;10.454;2023-01-10T00:18:12;3.23;;;1.80;;
19798;SDS011;10059;59.850;10.454;2023-01-10T00:20:39;3.00;;;2.30;;
19798;SDS011;10059;59.850;10.454;2023-01-10T00:23:05;3.90;;;2.70;;
19798;SDS011;10059;59.850;10.454;2023-01-10T00:25:34;3.93;;;2.57;;
19798;SDS011;10059;59.850;10.454;2023-01-10T00:28:00;3.57;;;2.60;;
19798;SDS011;10059;59.850;10.454;2023-01-10T00:30:36;6.83;;;3.20;;
19798;SDS011;10059;59.850;10.454;2023-01-10T00:33:03;5.47;;;2.80;;
19798;SDS011;10059;59.850;10.454;2023-01-10T00:35:30;5.10;;;2.80;;
19798;SDS011;10059;59.850;10.454;2023-01-10T00:37:57;4.33;;;3.00;;
19798;SDS011;10059;59.850;10.454;2023-01-10T00:40:29;4.43;;;2.73;;
19798;SDS011;10059;59.850;10.454;2023-01-10T00:42:58;4.90;;;3.00;;
19798;SDS011;10059;59.850;10.454;2023-01-10T00:45:43;5.50;;;2.90;;
19798;SDS011;10059;59.850;10.454;2023-01-10T00:48:10;5.00;;;3.00;;
19798;SDS011;10059;59.850;10.454;2023-01-10T00:50:37;8.80;;;3.50;;
19798;SDS011;10059;59.850;10.454;2023-01-10T00:53:04;5.20;;;3.53;;
19798;SDS011;10059;59.850;10.454;2023-01-10T00:55:30;6.20;;;3.33;;
19798;SDS011;10059;59.850;10.454;2023-01-10T00:57:59;11.10;;;3.70;;
19798;SDS011;10059;59.850;10.454;2023-01-10T01:00:26;5.80;;;3.50;;
19798;SDS011;10059;59.850;10.454;2023-01-10T01:02:53;5.53;;;3.30;;
19798;SDS011;10059;59.850;10.454;2023-01-10T01:05:19;6.10;;;3.77;;
19798;SDS011;10059;59.850;10.454;2023-01-10T01:07:47;7.70;;;3.40;;
19798;SDS011;10059;59.850;10.454;2023-01-10T01:10:14;7.03;;;3.77;;
19798;SDS011;10059;59.850;10.454;2023-01-10T01:12:53;5.57;;;3.57;;
19798;SDS011;10059;59.850;10.454;2023-01-10T01:15:23;5.77;;;3.67;;
19798;SDS011;10059;59.850;10.454;2023-01-10T01:17:50;6.30;;;3.80;;
19798;SDS011;10059;59.850;10.454;2023-01-10T01:20:17;5.80;;;3.67;;
19798;SDS011;10059;59.850;10.454;2023-01-10T01:22:45;7.80;;;3.90;;
19798;SDS011;10059;59.850;10.454;2023-01-10T01:25:12;6.43;;;4.00;;
19798;SDS011;10059;59.850;10.454;2023-01-10T01:27:39;7.00;;;3.93;;
19798;SDS011;10059;59.850;10.454;2023-01-10T01:30:06;7.87;;;4.30;;
19798;SDS011;10059;59.850;10.454;2023-01-10T01:32:36;8.90;;;4.00;;
19798;SDS011;10059;59.850;10.454;2023-01-10T01:35:03;7.53;;;4.13;;
19798;SDS011;10059;59.850;10.454;2023-01-10T01:37:30;6.40;;;3.80;;
19798;SDS011;10059;59.850;10.454;2023-01-10T01:39:57;7.73;;;3.87;;
19798;SDS011;10059;59.850;10.454;2023-01-10T01:42:25;9.63;;;4.10;;
19798;SDS011;10059;59.850;10.454;2023-01-10T01:48:01;6.70;;;3.73;;
19798;SDS011;10059;59.850;10.454;2023-01-10T01:50:35;11.93;;;4.87;;
19798;SDS011;10059;59.850;10.454;2023-01-10T01:53:06;8.73;;;4.97;;
19798;SDS011;10059;59.850;10.454;2023-01-10T01:55:38;11.10;;;4.83;;
19798;SDS011;10059;59.850;10.454;2023-01-10T01:58:08;9.80;;;4.53;;
19798;SDS011;10059;59.850;10.454;2023-01-10T02:00:38;7.70;;;4.30;;
19798;SDS011;10059;59.850;10.454;2023-01-10T02:03:07;9.30;;;4.40;;
19798;SDS011;10059;59.850;10.454;2023-01-10T02:05:34;9.27;;;4.50;;
19798;SDS011;10059;59.850;10.454;2023-01-10T02:08:04;10.77;;;4.93;;
19798;SDS011;10059;59.850;10.454;2023-01-10T02:10:32;8.00;;;4.43;;
19798;SDS011;10059;59.850;10.454;2023-01-10T02:13:04;10.97;;;4.93;;
19798;SDS011;10059;59.850;10.454;2023-01-10T02:15:33;10.07;;;5.40;;
19798;SDS011;10059;59.850;10.454;2023-01-10T02:18:00;8.27;;;4.57;;
19798;SDS011;10059;59.850;10.454;2023-01-10T02:20:29;10.63;;;4.77;;
19798;SDS011;10059;59.850;10.454;2023-01-10T02:23:13;8.97;;;4.73;;
19798;SDS011;10059;59.850;10.454;2023-01-10T02:26:04;10.07;;;4.50;;
19798;SDS011;10059;59.850;10.454;2023-01-10T02:29:07;9.60;;;4.37;;
19798;SDS011;10059;59.850;10.454;2023-01-10T02:34:46;10.57;;;4.30;;
19798;SDS011;10059;59.850;10.454;2023-01-10T02:37:27;9.97;;;3.93;;
19798;SDS011;10059;59.850;10.454;2023-01-10T02:40:06;7.00;;;4.20;;
19798;SDS011;10059;59.850;10.454;2023-01-10T02:42:38;8.03;;;4.10;;
19798;SDS011;10059;59.850;10.454;2023-01-10T02:45:13;7.70;;;3.63;;
19798;SDS011;10059;59.850;10.454;2023-01-10T02:47:47;13.63;;;4.20;;
19798;SDS011;10059;59.850;10.454;2023-01-10T02:50:23;9.90;;;4.17;;
19798;SDS011;10059;59.850;10.454;2023-01-10T02:52:55;11.40;;;4.20;;
19798;SDS011;10059;59.850;10.454;2023-01-10T02:55:25;13.97;;;4.70;;
19798;SDS011;10059;59.850;10.454;2023-01-10T02:58:00;27.70;;;5.03;;
19798;SDS011;10059;59.850;10.454;2023-01-10T03:00:38;22.13;;;5.70;;
19798;SDS011;10059;59.850;10.454;2023-01-10T03:03:17;14.70;;;4.60;;
19798;SDS011;10059;59.850;10.454;2023-01-10T03:05:58;17.33;;;4.67;;
19798;SDS011;10059;59.850;10.454;2023-01-10T03:08:34;11.83;;;4.97;;
19798;SDS011;10059;59.850;10.454;2023-01-10T03:11:06;14.00;;;5.43;;
19798;SDS011;10059;59.850;10.454;2023-01-10T03:13:36;12.33;;;5.30;;
19798;SDS011;10059;59.850;10.454;2023-01-10T03:16:09;14.13;;;5.77;;
19798;SDS011;10059;59.850;10.454;2023-01-10T03:18:42;12.97;;;5.07;;
19798;SDS011;10059;59.850;10.454;2023-01-10T03:21:14;11.33;;;5.13;;
19798;SDS011;10059;59.850;10.454;2023-01-10T03:23:43;13.83;;;4.90;;
19798;SDS011;10059;59.850;10.454;2023-01-10T03:26:12;14.57;;;4.90;;
19798;SDS011;10059;59.850;10.454;2023-01-10T03:28:42;12.70;;;5.00;;
19798;SDS011;10059;59.850;10.454;2023-01-10T03:31:14;10.13;;;4.63;;
19798;SDS011;10059;59.850;10.454;2023-01-10T03:33:45;10.10;;;5.17;;
19798;SDS011;10059;59.850;10.454;2023-01-10T03:36:15;11.23;;;4.63;;
19798;SDS011;10059;59.850;10.454;2023-01-10T03:38:55;12.60;;;5.50;;
19798;SDS011;10059;59.850;10.454;2023-01-10T03:41:28;12.00;;;4.87;;
19798;SDS011;10059;59.850;10.454;2023-01-10T03:44:03;10.10;;;5.00;;
19798;SDS011;10059;59.850;10.454;2023-01-10T03:47:02;10.03;;;4.73;;
19798;SDS011;10059;59.850;10.454;2023-01-10T03:49:33;9.27;;;4.70;;
19798;SDS011;10059;59.850;10.454;2023-01-10T03:52:03;11.50;;;4.77;;
19798;SDS011;10059;59.850;10.454;2023-01-10T03:54:32;10.20;;;4.83;;
19798;SDS011;10059;59.850;10.454;2023-01-10T03:56:59;8.87;;;4.13;;
19798;SDS011;10059;59.850;10.454;2023-01-10T03:59:26;6.23;;;3.70;;
19798;SDS011;10059;59.850;10.454;2023-01-10T04:01:54;8.60;;;4.17;;
19798;SDS011;10059;59.850;10.454;2023-01-10T04:04:21;8.00;;;4.10;;
19798;SDS011;10059;59.850;10.454;2023-01-10T04:06:49;7.93;;;4.20;;
19798;SDS011;10059;59.850;10.454;2023-01-10T04:09:16;10.10;;;3.70;;
19798;SDS011;10059;59.850;10.454;2023-01-10T04:11:43;8.17;;;3.63;;
19798;SDS011;10059;59.850;10.454;2023-01-10T04:14:09;10.53;;;3.63;;
19798;SDS011;10059;59.850;10.454;2023-01-10T04:16:36;6.73;;;3.70;;
19798;SDS011;10059;59.850;10.454;2023-01-10T04:19:03;6.97;;;3.80;;
19798;SDS011;10059;59.850;10.454;2023-01-10T04:21:30;6.93;;;3.47;;
19798;SDS011;10059;59.850;10.454;2023-01-10T04:23:58;6.77;;;3.40;;
19798;SDS011;10059;59.850;10.454;2023-01-10T04:26:25;5.77;;;2.97;;
19798;SDS011;10059;59.850;10.454;2023-01-10T04:28:52;4.80;;;3.00;;
19798;SDS011;10059;59.850;10.454;2023-01-10T04:31:19;5.60;;;2.80;;
19798;SDS011;10059;59.850;10.454;2023-01-10T04:33:46;6.30;;;3.00;;
19798;SDS011;10059;59.850;10.454;2023-01-10T04:36:13;4.70;;;2.80;;
19798;SDS011;10059;59.850;10.454;2023-01-10T04:38:40;5.07;;;2.97;;
19798;SDS011;10059;59.850;10.454;2023-01-10T04:41:08;4.67;;;2.77;;
19798;SDS011;10059;59.850;10.454;2023-01-10T04:43:35;5.00;;;2.57;;
19798;SDS011;10059;59.850;10.454;2023-01-10T04:46:02;5.60;;;2.80;;
19798;SDS011;10059;59.850;10.454;2023-01-10T04:48:29;4.13;;;2.10;;
19798;SDS011;10059;59.850;10.454;2023-01-10T04:50:56;6.27;;;2.60;;
19798;SDS011;10059;59.850;10.454;2023-01-10T04:53:23;3.63;;;1.73;;
19798;SDS011;10059;59.850;10.454;2023-01-10T04:55:50;3.60;;;1.90;;
19798;SDS011;10059;59.850;10.454;2023-01-10T04:58:18;3.73;;;2.27;;
19798;SDS011;10059;59.850;10.454;2023-01-10T05:00:45;2.80;;;1.60;;
19798;SDS011;10059;59.850;10.454;2023-01-10T05:03:12;7.17;;;1.90;;
19798;SDS011;10059;59.850;10.454;2023-01-10T05:05:41;3.70;;;1.87;;
19798;SDS011;10059;59.850;10.454;2023-01-10T05:08:08;3.60;;;1.90;;
19798;SDS011;10059;59.850;10.454;2023-01-10T05:10:35;5.07;;;2.37;;
19798;SDS011;10059;59.850;10.454;2023-01-10T05:13:02;3.17;;;2.00;;
19798;SDS011;10059;59.850;10.454;2023-01-10T05:15:30;3.10;;;1.90;;
19798;SDS011;10059;59.850;10.454;2023-01-10T05:17:57;4.13;;;1.40;;
19798;SDS011;10059;59.850;10.454;2023-01-10T05:20:24;2.00;;;1.20;;
19798;SDS011;10059;59.850;10.454;2023-01-10T05:22:51;3.93;;;2.00;;
19798;SDS011;10059;59.850;10.454;2023-01-10T05:25:18;4.40;;;2.10;;
19798;SDS011;10059;59.850;10.454;2023-01-10T05:27:44;2.07;;;1.30;;
19798;SDS011;10059;59.850;10.454;2023-01-10T05:30:12;2.50;;;1.60;;
19798;SDS011;10059;59.850;10.454;2023-01-10T05:32:40;3.70;;;1.20;;
19798;SDS011;10059;59.850;10.454;2023-01-10T05:35:07;2.50;;;1.40;;
19798;SDS011;10059;59.850;10.454;2023-01-10T05:37:34;3.07;;;1.30;;
19798;SDS011;10059;59.850;10.454;2023-01-10T05:40:01;5.57;;;2.43;;
19798;SDS011;10059;59.850;10.454;2023-01-10T05:42:29;3.27;;;1.90;;
19798;SDS011;10059;59.850;10.454;2023-01-10T05:44:55;2.50;;;1.80;;
19798;SDS011;10059;59.850;10.454;2023-01-10T05:47:22;4.20;;;2.70;;
19798;SDS011;10059;59.850;10.454;2023-01-10T05:49:51;5.50;;;3.47;;
19798;SDS011;10059;59.850;10.454;2023-01-10T05:52:17;3.17;;;2.00;;
19798;SDS011;10059;59.850;10.454;2023-01-10T05:54:44;2.70;;;1.13;;
19798;SDS011;10059;59.850;10.454;2023-01-10T05:57:11;3.97;;;2.80;;
19798;SDS011;10059;59.850;10.454;2023-01-10T05:59:38;2.77;;;1.80;;
19798;SDS011;10059;59.850;10.454;2023-01-10T06:02:05;2.57;;;2.03;;
19798;SDS011;10059;59.850;10.454;2023-01-10T06:04:32;4.97;;;3.20;;
19798;SDS011;10059;59.850;10.454;2023-01-10T06:07:00;2.73;;;2.30;;
19798;SDS011;10059;59.850;10.454;2023-01-10T06:09:27;2.33;;;1.90;;
19798;SDS011;10059;59.850;10.454;2023-01-10T06:11:53;3.20;;;2.10;;
19798;SDS011;10059;59.850;10.454;2023-01-10T06:14:20;3.93;;;2.77;;
19798;SDS011;10059;59.850;10.454;2023-01-10T06:16:47;2.67;;;1.90;;
19798;SDS011;10059;59.850;10.454;2023-01-10T06:19:14;3.07;;;2.20;;
19798;SDS011;10059;59.850;10.454;2023-01-10T06:21:41;3.13;;;1.77;;
19798;SDS011;10059;59.850;10.454;2023-01-10T06:24:09;3.30;;;2.37;;
19798;SDS011;10059;59.850;10.454;2023-01-10T06:26:36;3.43;;;2.10;;
19798;SDS011;10059;59.850;10.454;2023-01-10T06:29:03;4.00;;;2.70;;
19798;SDS011;10059;59.850;10.454;2023-01-10T06:31:30;4.23;;;2.50;;
19798;SDS011;10059;59.850;10.454;2023-01-10T06:33:56;3.80;;;2.60;;
19798;SDS011;10059;59.850;10.454;2023-01-10T06:36:23;2.60;;;2.40;;
19798;SDS011;10059;59.850;10.454;2023-01-10T06:38:50;4.17;;;2.03;;
19798;SDS011;10059;59.850;10.454;2023-01-10T06:41:18;2.90;;;2.17;;
19798;SDS011;10059;59.850;10.454;2023-01-10T06:43:45;5.67;;;1.70;;
19798;SDS011;10059;59.850;10.454;2023-01-10T06:46:13;1.20;;;1.10;;
19798;SDS011;10059;59.850;10.454;2023-01-10T06:48:40;3.20;;;2.20;;
19798;SDS011;10059;59.850;10.454;2023-01-10T06:51:09;2.07;;;1.80;;
19798;SDS011;10059;59.850;10.454;2023-01-10T06:53:36;2.50;;;1.90;;
19798;SDS011;10059;59.850;10.454;2023-01-10T06:56:04;3.63;;;2.10;;
19798;SDS011;10059;59.850;10.454;2023-01-10T06:58:32;2.33;;;1.70;;
19798;SDS011;10059;59.850;10.454;2023-01-10T07:00:59;3.10;;;1.80;;
19798;SDS011;10059;59.850;10.454;2023-01-10T07:03:26;2.50;;;1.83;;
19798;SDS011;10059;59.850;10.454;2023-01-10T07:05:53;3.13;;;2.60;;
19798;SDS011;10059;59.850;10.454;2023-01-10T07:08:20;2.70;;;2.20;;
19798;SDS011;10059;59.850;10.454;2023-01-10T07:10:47;1.77;;;1.50;;
19798;SDS011;10059;59.850;10.454;2023-01-10T07:13:14;2.77;;;1.90;;
19798;SDS011;10059;59.850;10.454;2023-01-10T07:15:42;2.40;;;2.00;;
19798;SDS011;10059;59.850;10.454;2023-01-10T07:18:08;3.17;;;2.40;;
19798;SDS011;10059;59.850;10.454;2023-01-10T07:20:35;4.20;;;3.00;;
19798;SDS011;10059;59.850;10.454;2023-01-10T07:23:02;3.57;;;2.60;;
19798;SDS011;10059;59.850;10.454;2023-01-10T07:25:29;25.83;;;14.03;;
19798;SDS011;10059;59.850;10.454;2023-01-10T07:27:56;11.03;;;6.40;;
19798;SDS011;10059;59.850;10.454;2023-01-10T07:30:23;10.47;;;5.77;;
19798;SDS011;10059;59.850;10.454;2023-01-10T07:32:54;18.40;;;9.70;;
19798;SDS011;10059;59.850;10.454;2023-01-10T07:35:22;6.53;;;4.30;;
19798;SDS011;10059;59.850;10.454;2023-01-10T07:37:49;6.67;;;4.17;;
19798;SDS011;10059;59.850;10.454;2023-01-10T07:40:16;11.17;;;5.67;;
19798;SDS011;10059;59.850;10.454;2023-01-10T07:42:43;6.50;;;4.30;;
19798;SDS011;10059;59.850;10.454;2023-01-10T07:45:10;7.70;;;4.90;;
19798;SDS011;10059;59.850;10.454;2023-01-10T07:47:37;7.83;;;5.07;;
19798;SDS011;10059;59.850;10.454;2023-01-10T07:50:06;8.03;;;5.23;;
19798;SDS011;10059;59.850;10.454;2023-01-10T07:52:34;8.60;;;4.87;;
19798;SDS011;10059;59.850;10.454;2023-01-10T07:55:02;9.73;;;4.63;;
19798;SDS011;10059;59.850;10.454;2023-01-10T07:57:29;7.17;;;4.30;;
19798;SDS011;10059;59.850;10.454;2023-01-10T07:59:56;6.70;;;4.20;;
19798;SDS011;10059;59.850;10.454;2023-01-10T08:02:23;7.93;;;4.83;;
19798;SDS011;10059;59.850;10.454;2023-01-10T08:04:50;7.77;;;4.80;;
19798;SDS011;10059;59.850;10.454;2023-01-10T08:07:18;8.20;;;5.00;;
19798;SDS011;10059;59.850;10.454;2023-01-10T08:09:45;9.10;;;5.43;;
19798;SDS011;10059;59.850;10.454;2023-01-10T08:12:12;10.03;;;5.50;;
19798;SDS011;10059;59.850;10.454;2023-01-10T08:14:38;7.83;;;4.90;;
19798;SDS011;10059;59.850;10.454;2023-01-10T08:17:05;11.97;;;6.77;;
19798;SDS011;10059;59.850;10.454;2023-01-10T08:19:32;11.50;;;6.70;;
19798;SDS011;10059;59.850;10.454;2023-01-10T08:21:59;10.17;;;6.07;;
19798;SDS011;10059;59.850;10.454;2023-01-10T08:24:28;8.33;;;5.53;;
19798;SDS011;10059;59.850;10.454;2023-01-10T08:26:56;8.90;;;5.20;;
19798;SDS011;10059;59.850;10.454;2023-01-10T08:29:23;10.00;;;5.40;;
19798;SDS011;10059;59.850;10.454;2023-01-10T08:31:50;9.70;;;5.07;;
19798;SDS011;10059;59.850;10.454;2023-01-10T08:34:17;7.67;;;4.20;;
19798;SDS011;10059;59.850;10.454;2023-01-10T08:36:44;8.70;;;4.40;;
19798;SDS011;10059;59.850;10.454;2023-01-10T08:39:14;6.70;;;4.30;;
19798;SDS011;10059;59.850;10.454;2023-01-10T08:41:42;5.17;;;3.57;;
19798;SDS011;10059;59.850;10.454;2023-01-10T08:44:09;5.20;;;3.57;;
19798;SDS011;10059;59.850;10.454;2023-01-10T08:46:37;9.87;;;4.30;;
19798;SDS011;10059;59.850;10.454;2023-01-10T08:49:04;5.30;;;3.43;;
19798;SDS011;10059;59.850;10.454;2023-01-10T08:51:31;4.83;;;3.20;;
19798;SDS011;10059;59.850;10.454;2023-01-10T08:53:58;4.50;;;3.00;;
19798;SDS011;10059;59.850;10.454;2023-01-10T08:56:25;3.97;;;2.97;;
19798;SDS011;10059;59.850;10.454;2023-01-10T08:58:53;3.63;;;2.90;;
19798;SDS011;10059;59.850;10.454;2023-01-10T09:01:20;5.27;;;2.90;;
19798;SDS011;10059;59.850;10.454;2023-01-10T09:03:47;4.53;;;3.10;;
19798;SDS011;10059;59.850;10.454;2023-01-10T09:06:14;3.43;;;2.70;;
19798;SDS011;10059;59.850;10.454;2023-01-10T09:08:41;4.73;;;3.30;;
19798;SDS011;10059;59.850;10.454;2023-01-10T09:11:08;4.40;;;3.17;;
19798;SDS011;10059;59.850;10.454;2023-01-10T09:13:34;5.00;;;3.47;;
19798;SDS011;10059;59.850;10.454;2023-01-10T09:16:03;6.50;;;3.80;;
19798;SDS011;10059;59.850;10.454;2023-01-10T09:18:30;6.23;;;3.77;;
19798;SDS011;10059;59.850;10.454;2023-01-10T09:20:58;6.90;;;3.67;;
19798;SDS011;10059;59.850;10.454;2023-01-10T09:23:25;5.67;;;3.80;;
19798;SDS011;10059;59.850;10.454;2023-01-10T09:25:52;5.67;;;3.70;;
19798;SDS011;10059;59.850;10.454;2023-01-10T09:28:21;4.33;;;3.17;;
19798;SDS011;10059;59.850;10.454;2023-01-10T09:30:49;3.60;;;2.50;;
19798;SDS011;10059;59.850;10.454;2023-01-10T09:33:17;7.37;;;3.53;;
19798;SDS011;10059;59.850;10.454;2023-01-10T09:35:44;5.30;;;3.70;;
19798;SDS011;10059;59.850;10.454;2023-01-10T09:38:12;3.87;;;2.93;;
19798;SDS011;10059;59.850;10.454;2023-01-10T09:40:48;9.50;;;4.53;;
19798;SDS011;10059;59.850;10.454;2023-01-10T09:43:36;4.87;;;3.20;;
19798;SDS011;10059;59.850;10.454;2023-01-10T09:46:11;5.03;;;3.47;;
19798;SDS011;10059;59.850;10.454;2023-01-10T09:48:46;4.87;;;3.30;;
19798;SDS011;10059;59.850;10.454;2023-01-10T09:51:23;32.00;;;10.70;;
19798;SDS011;10059;59.850;10.454;2023-01-10T09:53:58;23.90;;;8.90;;
19798;SDS011;10059;59.850;10.454;2023-01-10T09:56:28;5.30;;;3.30;;
19798;SDS011;10059;59.850;10.454;2023-01-10T09:58:56;4.90;;;3.50;;
19798;SDS011;10059;59.850;10.454;2023-01-10T10:01:25;10.83;;;5.43;;
19798;SDS011;10059;59.850;10.454;2023-01-10T10:04:04;18.10;;;7.10;;
19798;SDS011;10059;59.850;10.454;2023-01-10T10:06:40;39.87;;;11.47;;
19798;SDS011;10059;59.850;10.454;2023-01-10T10:09:07;7.43;;;4.40;;
19798;SDS011;10059;59.850;10.454;2023-01-10T10:11:44;26.93;;;14.10;;
19798;SDS011;10059;59.850;10.454;2023-01-10T10:14:22;20.47;;;11.27;;
19798;SDS011;10059;59.850;10.454;2023-01-10T10:17:02;8.83;;;5.10;;
19798;SDS011;10059;59.850;10.454;2023-01-10T10:19:45;10.10;;;5.07;;
19798;SDS011;10059;59.850;10.454;2023-01-10T10:22:24;12.77;;;7.10;;
19798;SDS011;10059;59.850;10.454;2023-01-10T10:25:02;13.83;;;6.87;;
19798;SDS011;10059;59.850;10.454;2023-01-10T10:27:40;10.77;;;5.43;;
19798;SDS011;10059;59.850;10.454;2023-01-10T10:30:24;10.87;;;5.47;;
19798;SDS011;10059;59.850;10.454;2023-01-10T10:33:02;12.80;;;5.77;;
19798;SDS011;10059;59.850;10.454;2023-01-10T10:35:41;10.10;;;5.60;;
19798;SDS011;10059;59.850;10.454;2023-01-10T10:38:16;9.30;;;5.17;;
19798;SDS011;10059;59.850;10.454;2023-01-10T10:40:45;14.47;;;7.70;;
19798;SDS011;10059;59.850;10.454;2023-01-10T10:43:15;12.17;;;6.67;;
19798;SDS011;10059;59.850;10.454;2023-01-10T10:45:46;15.87;;;6.40;;
19798;SDS011;10059;59.850;10.454;2023-01-10T10:48:18;15.33;;;8.07;;
19798;SDS011;10059;59.850;10.454;2023-01-10T10:53:44;20.63;;;9.67;;
19798;SDS011;10059;59.850;10.454;2023-01-10T10:56:14;43.77;;;19.00;;
19798;SDS011;10059;59.850;10.454;2023-01-10T10:58:43;16.97;;;8.50;;
19798;SDS011;10059;59.850;10.454;2023-01-10T11:01:13;11.40;;;6.03;;
19798;SDS011;10059;59.850;10.454;2023-01-10T11:03:41;7.10;;;4.30;;
19798;SDS011;10059;59.850;10.454;2023-01-10T11:06:12;7.67;;;4.00;;
19798;SDS011;10059;59.850;10.454;2023-01-10T11:08:44;12.10;;;4.93;;
19798;SDS011;10059;59.850;10.454;2023-01-10T11:11:15;19.03;;;6.10;;
19798;SDS011;10059;59.850;10.454;2023-01-10T11:13:46;43.23;;;20.50;;
19798;SDS011;10059;59.850;10.454;2023-01-10T11:16:27;31.87;;;9.47;;
19798;SDS011;10059;59.850;10.454;2023-01-10T11:19:09;17.80;;;6.00;;
19798;SDS011;10059;59.850;10.454;2023-01-10T11:21:46;19.30;;;5.70;;
19798;SDS011;10059;59.850;10.454;2023-01-10T11:24:28;13.63;;;4.77;;
19798;SDS011;10059;59.850;10.454;2023-01-10T11:26:58;25.43;;;5.50;;
19798;SDS011;10059;59.850;10.454;2023-01-10T11:29:28;20.97;;;5.53;;
19798;SDS011;10059;59.850;10.454;2023-01-10T11:32:07;11.40;;;5.80;;
19798;SDS011;10059;59.850;10.454;2023-01-10T11:34:39;9.93;;;4.87;;
19798;SDS011;10059;59.850;10.454;2023-01-10T11:37:18;16.37;;;4.57;;
19798;SDS011;10059;59.850;10.454;2023-01-10T11:39:48;14.47;;;4.93;;
19798;SDS011;10059;59.850;10.454;2023-01-10T11:42:31;10.23;;;4.83;;
19798;SDS011;10059;59.850;10.454;2023-01-10T11:45:10;26.13;;;6.00;;
19798;SDS011;10059;59.850;10.454;2023-01-10T11:47:46;19.50;;;6.27;;
19798;SDS011;10059;59.850;10.454;2023-01-10T11:50:18;15.27;;;5.47;;
19798;SDS011;10059;59.850;10.454;2023-01-10T11:52:48;14.10;;;6.17;;
19798;SDS011;10059;59.850;10.454;2023-01-10T11:55:17;14.00;;;5.57;;
19798;SDS011;10059;59.850;10.454;2023-01-10T11:57:45;13.73;;;5.97;;
19798;SDS011;10059;59.850;10.454;2023-01-10T12:00:22;14.33;;;5.63;;
19798;SDS011;10059;59.850;10.454;2023-01-10T12:02:57;25.40;;;6.10;;
19798;SDS011;10059;59.850;10.454;2023-01-10T12:05:25;13.03;;;5.50;;
19798;SDS011;10059;59.850;10.454;2023-01-10T12:07:54;32.17;;;6.10;;
19798;SDS011;10059;59.850;10.454;2023-01-10T12:10:23;30.33;;;5.60;;
19798;SDS011;10059;59.850;10.454;2023-01-10T12:12:51;15.10;;;5.67;;
19798;SDS011;10059;59.850;10.454;2023-01-10T12:15:22;21.07;;;6.77;;
19798;SDS011;10059;59.850;10.454;2023-01-10T12:17:51;8.70;;;4.47;;
19798;SDS011;10059;59.850;10.454;2023-01-10T12:20:20;9.10;;;4.30;;
19798;SDS011;10059;59.850;10.454;2023-01-10T12:22:48;11.33;;;4.80;;
19798;SDS011;10059;59.850;10.454;2023-01-10T12:25:21;33.53;;;5.80;;
19798;SDS011;10059;59.850;10.454;2023-01-10T12:27:52;49.10;;;5.87;;
19798;SDS011;10059;59.850;10.454;2023-01-10T12:30:23;17.53;;;5.00;;
19798;SDS011;10059;59.850;10.454;2023-01-10T12:32:56;15.57;;;6.63;;
19798;SDS011;10059;59.850;10.454;2023-01-10T12:35:31;29.43;;;6.53;;
19798;SDS011;10059;59.850;10.454;2023-01-10T12:38:04;28.60;;;6.37;;
19798;SDS011;10059;59.850;10.454;2023-01-10T12:40:48;36.90;;;7.20;;
19798;SDS011;10059;59.850;10.454;2023-01-10T12:43:17;74.23;;;8.57;;
19798;SDS011;10059;59.850;10.454;2023-01-10T12:46:08;31.10;;;5.87;;
19798;SDS011;10059;59.850;10.454;2023-01-10T12:48:41;45.60;;;5.43;;
19798;SDS011;10059;59.850;10.454;2023-01-10T12:51:13;48.73;;;4.67;;
19798;SDS011;10059;59.850;10.454;2023-01-10T12:53:43;54.03;;;4.77;;
19798;SDS011;10059;59.850;10.454;2023-01-10T12:56:15;19.60;;;4.87;;
19798;SDS011;10059;59.850;10.454;2023-01-10T12:58:43;25.97;;;5.07;;
19798;SDS011;10059;59.850;10.454;2023-01-10T13:01:14;18.63;;;4.57;;
19798;SDS011;10059;59.850;10.454;2023-01-10T13:03:44;15.47;;;4.17;;
19798;SDS011;10059;59.850;10.454;2023-01-10T13:06:15;10.67;;;4.37;;
19798;SDS011;10059;59.850;10.454;2023-01-10T13:08:48;6.47;;;3.40;;
19798;SDS011;10059;59.850;10.454;2023-01-10T13:11:18;7.60;;;3.30;;
19798;SDS011;10059;59.850;10.454;2023-01-10T13:13:51;7.83;;;3.20;;
19798;SDS011;10059;59.850;10.454;2023-01-10T13:16:23;5.77;;;2.60;;
19798;SDS011;10059;59.850;10.454;2023-01-10T13:18:57;7.20;;;2.63;;
19798;SDS011;10059;59.850;10.454;2023-01-10T13:21:29;4.17;;;2.50;;
19798;SDS011;10059;59.850;10.454;2023-01-10T13:23:58;4.57;;;2.60;;
19798;SDS011;10059;59.850;10.454;2023-01-10T13:26:36;3.90;;;2.60;;
19798;SDS011;10059;59.850;10.454;2023-01-10T13:29:13;5.03;;;3.30;;
19798;SDS011;10059;59.850;10.454;2023-01-10T13:31:43;4.13;;;2.47;;
19798;SDS011;10059;59.850;10.454;2023-01-10T13:34:10;3.60;;;2.37;;
19798;SDS011;10059;59.850;10.454;2023-01-10T13:36:40;4.20;;;2.63;;
19798;SDS011;10059;59.850;10.454;2023-01-10T13:39:18;6.33;;;3.00;;
19798;SDS011;10059;59.850;10.454;2023-01-10T13:47:58;6.37;;;4.27;;
19798;SDS011;10059;59.850;10.454;2023-01-10T13:50:51;69.47;;;6.53;;
19798;SDS011;10059;59.850;10.454;2023-01-10T13:53:41;10.47;;;5.40;;
19798;SDS011;10059;59.850;10.454;2023-01-10T13:59:02;21.83;;;4.27;;
19798;SDS011;10059;59.850;10.454;2023-01-10T14:01:52;11.07;;;4.17;;
19798;SDS011;10059;59.850;10.454;2023-01-10T14:04:38;7.37;;;4.00;;
19798;SDS011;10059;59.850;10.454;2023-01-10T14:07:20;61.67;;;5.37;;
19798;SDS011;10059;59.850;10.454;2023-01-10T14:09:50;76.23;;;6.80;;
19798;SDS011;10059;59.850;10.454;2023-01-10T14:12:22;28.03;;;5.13;;
19798;SDS011;10059;59.850;10.454;2023-01-10T14:14:54;35.50;;;5.50;;
19798;SDS011;10059;59.850;10.454;2023-01-10T14:17:24;15.97;;;4.87;;
19798;SDS011;10059;59.850;10.454;2023-01-10T14:22:44;12.30;;;4.93;;
19798;SDS011;10059;59.850;10.454;2023-01-10T14:25:23;10.83;;;5.23;;
19798;SDS011;10059;59.850;10.454;2023-01-10T14:27:51;7.37;;;4.47;;
19798;SDS011;10059;59.850;10.454;2023-01-10T14:30:21;9.00;;;4.60;;
19798;SDS011;10059;59.850;10.454;2023-01-10T14:32:52;12.83;;;6.30;;
19798;SDS011;10059;59.850;10.454;2023-01-10T14:35:23;13.10;;;7.70;;
19798;SDS011;10059;59.850;10.454;2023-01-10T14:37:55;16.43;;;5.63;;
19798;SDS011;10059;59.850;10.454;2023-01-10T14:40:25;10.60;;;5.30;;
19798;SDS011;10059;59.850;10.454;2023-01-10T14:42:54;10.73;;;4.00;;
19798;SDS011;10059;59.850;10.454;2023-01-10T14:45:32;11.20;;;3.83;;
19798;SDS011;10059;59.850;10.454;2023-01-10T14:48:21;7.43;;;3.70;;
19798;SDS011;10059;59.850;10.454;2023-01-10T14:50:51;6.77;;;3.70;;
19798;SDS011;10059;59.850;10.454;2023-01-10T14:53:24;6.97;;;3.60;;
19798;SDS011;10059;59.850;10.454;2023-01-10T14:55:52;5.80;;;3.37;;
19798;SDS011;10059;59.850;10.454;2023-01-10T14:58:19;9.40;;;4.07;;
19798;SDS011;10059;59.850;10.454;2023-01-10T15:00:48;8.30;;;4.57;;
19798;SDS011;10059;59.850;10.454;2023-01-10T15:03:16;9.90;;;4.33;;
19798;SDS011;10059;59.850;10.454;2023-01-10T15:05:45;13.53;;;4.73;;
19798;SDS011;10059;59.850;10.454;2023-01-10T15:08:15;10.03;;;4.50;;